Time;durP1;ratioP1;P1;durP2;ratioP2;P2;SDS_P1;SDS_P2;PMS_P1;PMS_P2;Temp;Humidity;BMP_temperature;BMP_pressure;BME280_temperature;BME280_humidity;BME280_pressure;Samples;Min_cycle;Max_cycle;Signal;HPM_P1;HPM_P2
2022/09/14 00:00:13;;;;;;;1.50;1.40;;;;;;;-144.22;100.00;60274.75;6183000;28;20241;-41
2022/09/14 00:03:15;;;;;;;1.40;1.30;;;;;;;-144.22;100.00;60274.75;6182380;28;20229;-40
2022/09/14 00:06:18;;;;;;;1.50;1.40;;;;;;;-144.22;100.00;60274.75;6182636;28;20570;-40
2022/09/14 00:09:22;;;;;;;1.70;1.43;;;;;;;-144.22;100.00;60274.75;6182615;28;20239;-40
2022/09/14 00:12:24;;;;;;;1.77;1.67;;;;;;;-144.22;100.00;60274.75;6182155;28;20759;-41
2022/09/14 00:15:26;;;;;;;2.20;1.63;;;;;;;-144.22;100.00;60274.75;6180049;28;20241;-40
2022/09/14 00:18:29;;;;;;;1.50;1.40;;;;;;;-144.22;100.00;60274.75;6182244;28;20294;-41
2022/09/14 00:21:36;;;;;;;1.70;1.60;;;;;;;-144.22;100.00;60274.75;6163460;28;20602;-40
2022/09/14 00:24:38;;;;;;;3.97;1.40;;;;;;;-144.22;100.00;60274.75;6179666;28;20316;-40
2022/09/14 00:27:40;;;;;;;1.60;1.50;;;;;;;-144.22;100.00;60274.75;6181886;28;20235;-40
2022/09/14 00:30:42;;;;;;;2.10;1.70;;;;;;;-144.22;100.00;60274.75;6183233;28;20597;-40
2022/09/14 00:33:49;;;;;;;1.60;1.50;;;;;;;-144.22;100.00;60274.75;6181272;28;20263;-40
2022/09/14 00:36:51;;;;;;;3.37;1.43;;;;;;;-144.22;100.00;60274.75;6181366;28;20628;-40
2022/09/14 00:39:53;;;;;;;1.67;1.50;;;;;;;-144.22;100.00;60274.75;6181476;28;20716;-40
2022/09/14 00:42:55;;;;;;;2.40;1.40;;;;;;;-144.22;100.00;60274.75;6181303;28;20256;-40
2022/09/14 00:46:01;;;;;;;1.93;1.03;;;;;;;-144.22;100.00;60274.75;6182679;28;20260;-41
2022/09/14 00:49:07;;;;;;;2.57;1.43;;;;;;;-144.22;100.00;60274.75;6180983;28;20237;-41
2022/09/14 00:52:09;;;;;;;2.23;1.57;;;;;;;-144.22;100.00;60274.75;6181359;28;20847;-41
2022/09/14 00:55:15;;;;;;;1.97;1.73;;;;;;;-144.22;100.00;60274.75;6181556;28;20259;-40
2022/09/14 00:58:17;;;;;;;1.57;1.40;;;;;;;-144.22;100.00;60274.75;6182110;28;20320;-40
2022/09/14 01:01:50;;;;;;;1.40;1.30;;;;;;;-144.22;100.00;60274.75;6181579;28;20310;-40
2022/09/14 01:04:52;;;;;;;1.40;1.30;;;;;;;-144.22;100.00;60274.75;6179193;28;20240;-40
2022/09/14 01:08:42;;;;;;;1.37;1.27;;;;;;;-144.22;100.00;60274.75;6179690;28;20240;-40
2022/09/14 01:12:10;;;;;;;3.73;1.63;;;;;;;-144.22;100.00;60274.75;6202473;28;20722;-41
2022/09/14 01:15:21;;;;;;;2.47;1.50;;;;;;;-144.22;100.00;60274.75;6201994;28;20880;-40
2022/09/14 01:18:26;;;;;;;3.93;1.57;;;;;;;-144.22;100.00;60274.75;6186005;28;20307;-42
2022/09/14 01:21:32;;;;;;;1.80;1.40;;;;;;;-144.22;100.00;60274.75;6201199;28;20749;-43
2022/09/14 01:24:41;;;;;;;1.83;1.40;;;;;;;-144.22;100.00;60274.75;6201559;28;20292;-42
2022/09/14 01:27:44;;;;;;;2.63;1.70;;;;;;;-144.22;100.00;60274.75;6205510;28;20235;-42
2022/09/14 01:30:49;;;;;;;2.17;1.50;;;;;;;-144.22;100.00;60274.75;6206377;28;20616;-42
2022/09/14 01:33:58;;;;;;;1.97;1.80;;;;;;;-144.22;100.00;60274.75;6201895;28;20228;-42
2022/09/14 01:37:12;;;;;;;2.23;1.50;;;;;;;-144.22;100.00;60274.75;6201659;28;20221;-42
2022/09/14 01:40:27;;;;;;;2.07;1.53;;;;;;;-144.22;100.00;60274.75;6201428;28;20236;-42
2022/09/14 01:43:40;;;;;;;1.60;1.50;;;;;;;-144.22;100.00;60274.75;6182198;28;20241;-42
2022/09/14 01:46:56;;;;;;;1.60;1.47;;;;;;;-144.22;100.00;60274.75;6181250;28;20708;-42
2022/09/14 01:50:07;;;;;;;5.50;1.40;;;;;;;-144.22;100.00;60274.75;6181444;28;20269;-42
2022/09/14 01:53:18;;;;;;;1.70;1.60;;;;;;;-144.22;100.00;60274.75;6181262;28;20341;-42
2022/09/14 01:56:32;;;;;;;2.17;1.60;;;;;;;-144.22;100.00;60274.75;6180758;28;20252;-42
2022/09/14 01:59:38;;;;;;;1.60;1.50;;;;;;;-144.22;100.00;60274.75;6180786;28;20465;-43
2022/09/14 02:02:46;;;;;;;3.50;1.70;;;;;;;-144.22;100.00;60274.75;6180211;28;20264;-43
2022/09/14 02:06:02;;;;;;;2.70;1.40;;;;;;;-144.22;100.00;60274.75;6180510;28;20715;-42
2022/09/14 02:09:07;;;;;;;2.03;1.50;;;;;;;-144.22;100.00;60274.75;6180685;28;20222;-42
2022/09/14 02:12:09;;;;;;;1.80;1.60;;;;;;;-144.22;100.00;60274.75;6180194;28;20242;-42
2022/09/14 02:15:13;;;;;;;3.07;1.37;;;;;;;-144.22;100.00;60274.75;6180611;28;20224;-43
2022/09/14 02:18:16;;;;;;;3.63;1.40;;;;;;;-144.22;100.00;60274.75;6180412;28;20620;-42
2022/09/14 02:21:23;;;;;;;3.27;1.30;;;;;;;-144.22;100.00;60274.75;6180081;28;20720;-42
2022/09/14 02:24:27;;;;;;;1.37;1.27;;;;;;;-144.22;100.00;60274.75;6180694;28;20233;-43
2022/09/14 02:27:29;;;;;;;1.40;1.30;;;;;;;-144.22;100.00;60274.75;6180259;28;20660;-42
2022/09/14 02:30:47;;;;;;;1.37;1.27;;;;;;;-144.22;100.00;60274.75;6180284;28;20600;-42
2022/09/14 02:34:12;;;;;;;2.53;1.20;;;;;;;-144.22;100.00;60274.75;6180291;28;20614;-42
2022/09/14 02:38:08;;;;;;;1.60;1.40;;;;;;;-144.22;100.00;60274.75;6181380;28;20762;-42
2022/09/14 02:41:30;;;;;;;1.67;1.50;;;;;;;-144.22;100.00;60274.75;6203927;28;20236;-42
2022/09/14 02:45:03;;;;;;;2.13;1.60;;;;;;;-144.22;100.00;60274.75;6205046;28;20229;-42
2022/09/14 02:48:24;;;;;;;3.13;1.50;;;;;;;-144.22;100.00;60274.75;6204528;28;20233;-42
2022/09/14 02:51:37;;;;;;;1.53;1.33;;;;;;;-144.22;100.00;60274.75;6196116;28;20716;-42
2022/09/14 02:55:06;;;;;;;1.90;1.30;;;;;;;-144.22;100.00;60274.75;6204522;28;20771;-42
2022/09/14 02:58:11;;;;;;;1.50;1.40;;;;;;;-144.22;100.00;60274.75;6204803;28;20811;-43
2022/09/14 03:01:18;;;;;;;2.77;1.30;;;;;;;-144.22;100.00;60274.75;6203936;28;20348;-43
2022/09/14 03:04:21;;;;;;;3.93;1.50;;;;;;;-144.22;100.00;60274.75;6199186;28;20736;-42
2022/09/14 03:07:23;;;;;;;1.93;1.30;;;;;;;-144.22;100.00;60274.75;6203408;28;20236;-42
2022/09/14 03:10:26;;;;;;;1.73;1.33;;;;;;;-144.22;100.00;60274.75;6203962;28;20643;-42
2022/09/14 03:13:28;;;;;;;2.17;1.10;;;;;;;-144.22;100.00;60274.75;6200974;28;20328;-43
2022/09/14 03:16:30;;;;;;;1.23;1.13;;;;;;;-144.22;100.00;60274.75;6184041;28;20229;-42
2022/09/14 03:19:32;;;;;;;2.33;1.40;;;;;;;-144.22;100.00;60274.75;6184126;28;20693;-42
2022/09/14 03:22:34;;;;;;;2.33;1.50;;;;;;;-144.22;100.00;60274.75;6183668;28;20240;-42
2022/09/14 03:25:39;;;;;;;1.47;1.33;;;;;;;-144.22;100.00;60274.75;6183434;28;20368;-42
2022/09/14 03:28:41;;;;;;;2.03;1.60;;;;;;;-144.22;100.00;60274.75;6182038;28;20362;-43
2022/09/14 03:31:43;;;;;;;1.90;1.37;;;;;;;-144.22;100.00;60274.75;6183303;28;20347;-42
2022/09/14 03:34:45;;;;;;;1.67;1.57;;;;;;;-144.22;100.00;60274.75;6183405;28;20244;-42
2022/09/14 03:37:47;;;;;;;1.83;1.63;;;;;;;-144.22;100.00;60274.75;6182726;28;20241;-42
2022/09/14 03:40:49;;;;;;;2.27;1.40;;;;;;;-144.22;100.00;60274.75;6187817;28;20619;-42
2022/09/14 03:43:51;;;;;;;2.53;1.63;;;;;;;-144.22;100.00;60274.75;6188241;28;20799;-42
2022/09/14 03:46:53;;;;;;;1.67;1.50;;;;;;;-144.22;100.00;60274.75;6183907;28;20232;-44
2022/09/14 03:49:55;;;;;;;2.03;1.30;;;;;;;-144.22;100.00;60274.75;6183428;28;20245;-42
2022/09/14 03:52:58;;;;;;;1.40;1.30;;;;;;;-144.22;100.00;60274.75;6185822;28;20696;-42
2022/09/14 03:56:00;;;;;;;2.47;1.53;;;;;;;-144.22;100.00;60274.75;6182095;28;20600;-43
2022/09/14 03:59:02;;;;;;;1.63;1.53;;;;;;;-144.22;100.00;60274.75;6182935;28;20240;-42
2022/09/14 04:02:04;;;;;;;1.53;1.20;;;;;;;-144.22;100.00;60274.75;6181924;28;20319;-42
2022/09/14 04:05:07;;;;;;;1.60;1.50;;;;;;;-144.22;100.00;60274.75;6182483;28;20294;-42
2022/09/14 04:08:09;;;;;;;1.50;1.40;;;;;;;-144.22;100.00;60274.75;6182594;28;20237;-42
2022/09/14 04:11:15;;;;;;;2.97;1.50;;;;;;;-144.22;100.00;60274.75;6182878;28;20239;-42
2022/09/14 04:14:17;;;;;;;2.57;1.50;;;;;;;-144.22;100.00;60274.75;6182015;28;20739;-43
2022/09/14 04:17:19;;;;;;;2.43;1.40;;;;;;;-144.22;100.00;60274.75;6181694;28;20229;-42
2022/09/14 04:20:21;;;;;;;1.67;1.50;;;;;;;-144.22;100.00;60274.75;6182415;28;20644;-42
2022/09/14 04:23:24;;;;;;;1.97;1.40;;;;;;;-144.22;100.00;60274.75;6181870;28;20316;-42
2022/09/14 04:26:28;;;;;;;2.77;1.67;;;;;;;-144.22;100.00;60274.75;6198933;28;20260;-43
2022/09/14 04:29:30;;;;;;;2.40;1.57;;;;;;;-144.22;100.00;60274.75;6182580;28;20240;-42
2022/09/14 04:32:32;;;;;;;1.70;1.33;;;;;;;-144.22;100.00;60274.75;6181962;28;20705;-42
2022/09/14 04:35:36;;;;;;;1.40;1.30;;;;;;;-144.22;100.00;60274.75;6181676;28;20228;-42
2022/09/14 04:38:40;;;;;;;3.37;1.30;;;;;;;-144.22;100.00;60274.75;6181264;28;20229;-42
2022/09/14 04:41:42;;;;;;;1.73;1.50;;;;;;;-144.22;100.00;60274.75;6182655;28;20231;-42
2022/09/14 04:44:44;;;;;;;2.27;1.63;;;;;;;-144.22;100.00;60274.75;6181815;28;20224;-42
2022/09/14 04:47:46;;;;;;;1.67;1.30;;;;;;;-144.22;100.00;60274.75;6181860;28;20701;-42
2022/09/14 04:50:48;;;;;;;1.47;1.37;;;;;;;-144.22;100.00;60274.75;6182037;28;20299;-42
2022/09/14 04:53:53;;;;;;;1.67;1.37;;;;;;;-144.22;100.00;60274.75;6181245;28;21133;-43
2022/09/14 04:56:55;;;;;;;1.70;1.60;;;;;;;-144.22;100.00;60274.75;6181273;28;20631;-42
2022/09/14 04:59:57;;;;;;;2.73;1.63;;;;;;;-144.22;100.00;60274.75;6180229;28;20291;-43
2022/09/14 05:02:59;;;;;;;1.63;1.53;;;;;;;-144.22;100.00;60274.75;6181439;28;20236;-44
2022/09/14 05:06:02;;;;;;;3.13;1.30;;;;;;;-144.22;100.00;60274.75;6180049;28;20229;-42
2022/09/14 05:09:07;;;;;;;2.57;1.47;;;;;;;-144.22;100.00;60274.75;6181637;28;20581;-43
2022/09/14 05:12:09;;;;;;;4.03;1.20;;;;;;;-144.22;100.00;60274.75;6181081;28;20251;-42
2022/09/14 05:15:11;;;;;;;1.90;1.33;;;;;;;-144.22;100.00;60274.75;6180781;28;20218;-42
2022/09/14 05:18:13;;;;;;;1.90;1.70;;;;;;;-144.22;100.00;60274.75;6181092;28;20241;-42
2022/09/14 05:21:17;;;;;;;1.93;1.40;;;;;;;-144.22;100.00;60274.75;6178168;28;20229;-43
2022/09/14 05:24:19;;;;;;;3.50;1.50;;;;;;;-144.22;100.00;60274.75;6180936;28;20649;-43
2022/09/14 05:27:21;;;;;;;1.50;1.40;;;;;;;-144.22;100.00;60274.75;6180086;28;20241;-44
2022/09/14 05:30:23;;;;;;;2.30;1.57;;;;;;;-144.22;100.00;60274.75;6180157;28;20236;-42
2022/09/14 05:33:25;;;;;;;1.47;1.37;;;;;;;-144.22;100.00;60274.75;6180483;28;20236;-42
2022/09/14 05:36:27;;;;;;;1.60;1.50;;;;;;;-144.22;100.00;60274.75;6180210;28;20233;-42
2022/09/14 05:39:29;;;;;;;1.60;1.50;;;;;;;-144.22;100.00;60274.75;6181085;28;20228;-42
2022/09/14 05:42:31;;;;;;;1.57;1.47;;;;;;;-144.22;100.00;60274.75;6179565;28;20614;-42
2022/09/14 05:45:34;;;;;;;1.67;1.53;;;;;;;-144.22;100.00;60274.75;6178805;28;20704;-42
2022/09/14 05:48:38;;;;;;;1.40;1.30;;;;;;;-144.22;100.00;60274.75;6180443;28;20245;-43
2022/09/14 05:51:40;;;;;;;1.97;1.73;;;;;;;-144.22;100.00;60274.75;6180222;28;20326;-43
2022/09/14 05:54:42;;;;;;;3.03;1.90;;;;;;;-144.22;100.00;60274.75;6180184;28;20240;-42
2022/09/14 05:57:48;;;;;;;1.63;1.53;;;;;;;-144.22;100.00;60274.75;6180529;28;20854;-43
2022/09/14 06:00:50;;;;;;;2.27;1.60;;;;;;;-144.22;100.00;60274.75;6180821;28;20241;-42
2022/09/14 06:03:55;;;;;;;2.37;1.83;;;;;;;-144.22;100.00;60274.75;6179879;28;20225;-42
2022/09/14 06:06:56;;;;;;;4.03;1.90;;;;;;;-144.22;100.00;60274.75;6179238;28;20316;-42
2022/09/14 06:10:20;;;;;;;3.20;1.70;;;;;;;-144.22;100.00;60274.75;6180668;28;20236;-42
2022/09/14 06:13:22;;;;;;;1.90;1.80;;;;;;;-144.22;100.00;60274.75;6183145;28;20689;-42
2022/09/14 06:16:26;;;;;;;1.60;1.50;;;;;;;-144.22;100.00;60274.75;6185734;28;20244;-42
2022/09/14 06:19:28;;;;;;;2.30;1.80;;;;;;;-144.22;100.00;60274.75;6183405;28;20606;-42
2022/09/14 06:22:30;;;;;;;2.37;1.60;;;;;;;-144.22;100.00;60274.75;6184791;28;20384;-43
2022/09/14 06:25:32;;;;;;;1.43;1.33;;;;;;;-144.22;100.00;60274.75;6184489;28;20233;-42
2022/09/14 06:28:35;;;;;;;1.60;1.50;;;;;;;-144.22;100.00;60274.75;6184357;28;20689;-43
2022/09/14 06:31:37;;;;;;;2.67;1.60;;;;;;;-144.22;100.00;60274.75;6183691;28;20697;-44
2022/09/14 06:34:39;;;;;;;2.03;1.57;;;;;;;-144.22;100.00;60274.75;6183741;28;20468;-43
2022/09/14 06:37:41;;;;;;;1.70;1.60;;;;;;;-144.22;100.00;60274.75;6184330;28;20588;-43
2022/09/14 06:40:57;;;;;;;1.80;1.70;;;;;;;-144.22;100.00;60274.75;6185069;28;20324;-42
2022/09/14 06:44:02;;;;;;;1.70;1.60;;;;;;;-144.22;100.00;60274.75;6184168;28;20348;-40
2022/09/14 06:47:05;;;;;;;2.03;1.80;;;;;;;-144.22;100.00;60274.75;6183912;28;20606;-42
2022/09/14 06:50:07;;;;;;;1.80;1.70;;;;;;;-144.22;100.00;60274.75;6176268;28;20717;-40
2022/09/14 06:53:09;;;;;;;1.87;1.77;;;;;;;-144.22;100.00;60274.75;6184016;28;20421;-40
2022/09/14 06:56:11;;;;;;;1.60;1.50;;;;;;;-144.22;100.00;60274.75;6183702;28;20320;-42
2022/09/14 06:59:16;;;;;;;1.70;1.60;;;;;;;-144.22;100.00;60274.75;6184275;28;20228;-40
2022/09/14 07:02:19;;;;;;;1.50;1.40;;;;;;;-144.22;100.00;60274.75;6183610;28;20237;-40
2022/09/14 07:05:21;;;;;;;2.83;1.80;;;;;;;-144.22;100.00;60274.75;6182988;28;20568;-40
2022/09/14 07:08:27;;;;;;;1.70;1.60;;;;;;;-144.22;100.00;60274.75;6183517;28;20869;-40
2022/09/14 07:11:30;;;;;;;1.70;1.60;;;;;;;-144.22;100.00;60274.75;6184289;28;20228;-45
2022/09/14 07:14:32;;;;;;;2.00;1.90;;;;;;;-144.22;100.00;60274.75;6183880;28;20316;-40
2022/09/14 07:17:35;;;;;;;1.90;1.70;;;;;;;-144.22;100.00;60274.75;6183512;28;20232;-40
2022/09/14 07:20:37;;;;;;;2.13;1.60;;;;;;;-144.22;100.00;60274.75;6182656;28;20251;-40
2022/09/14 07:23:41;;;;;;;1.43;1.33;;;;;;;-144.22;100.00;60274.75;6183769;28;20237;-40
2022/09/14 07:26:43;;;;;;;2.50;1.93;;;;;;;-144.22;100.00;60274.75;6182667;28;20606;-40
2022/09/14 07:29:46;;;;;;;1.80;1.70;;;;;;;-144.22;100.00;60274.75;6183836;28;20756;-40
2022/09/14 07:32:48;;;;;;;2.23;1.90;;;;;;;-144.22;100.00;60274.75;6180581;28;20727;-40
2022/09/14 07:35:51;;;;;;;2.07;1.40;;;;;;;-144.22;100.00;60274.75;6182929;28;20279;-41
2022/09/14 07:38:54;;;;;;;1.73;1.63;;;;;;;-144.22;100.00;60274.75;6182861;28;20274;-40
2022/09/14 07:41:56;;;;;;;1.70;1.60;;;;;;;-144.22;100.00;60274.75;6182400;28;20233;-40
2022/09/14 07:44:58;;;;;;;1.70;1.60;;;;;;;-144.22;100.00;60274.75;6182665;28;20736;-40
2022/09/14 07:48:00;;;;;;;1.80;1.70;;;;;;;-144.22;100.00;60274.75;6182430;28;20718;-40
2022/09/14 07:51:06;;;;;;;2.37;1.50;;;;;;;-144.22;100.00;60274.75;6182444;28;20356;-40
2022/09/14 07:54:11;;;;;;;1.80;1.60;;;;;;;-144.22;100.00;60274.75;6187144;28;20836;-40
2022/09/14 07:57:14;;;;;;;1.53;1.43;;;;;;;-144.22;100.00;60274.75;6182820;28;20201;-40
2022/09/14 08:00:16;;;;;;;2.50;1.80;;;;;;;-144.22;100.00;60274.75;6182441;28;20711;-39
2022/09/14 08:03:18;;;;;;;2.60;1.77;;;;;;;-144.22;100.00;60274.75;6182452;28;20364;-40
2022/09/14 08:06:23;;;;;;;2.73;1.70;;;;;;;-144.22;100.00;60274.75;6181724;28;20221;-40
2022/09/14 08:09:26;;;;;;;1.50;1.37;;;;;;;20.89;100.00;60274.75;6182601;28;20701;-40
2022/09/14 08:12:28;;;;;;;1.57;1.47;;;;;;;-144.22;100.00;60274.75;6180808;28;20360;-40
2022/09/14 08:15:30;;;;;;;1.43;1.33;;;;;;;-144.22;100.00;60274.75;6182246;28;20303;-40
2022/09/14 08:18:34;;;;;;;1.70;1.50;;;;;;;-144.22;100.00;60274.75;6181594;28;20318;-40
2022/09/14 08:21:36;;;;;;;1.43;1.33;;;;;;;-144.22;100.00;60274.75;6181698;28;20260;-41
2022/09/14 08:24:43;;;;;;;1.57;1.30;;;;;;;-144.22;100.00;60274.75;6181986;28;20213;-41
2022/09/14 08:27:45;;;;;;;1.20;1.10;;;;;;;-144.22;100.00;60274.75;6181249;28;20252;-40
2022/09/14 08:30:47;;;;;;;1.60;1.20;;;;;;;-144.22;100.00;60274.75;6181889;28;20359;-42
2022/09/14 08:33:52;;;;;;;1.73;1.43;;;;;;;21.19;100.00;60274.75;6181450;28;20380;-40
2022/09/14 08:36:54;;;;;;;1.40;1.27;;;;;;;-144.22;100.00;60274.75;6180908;28;20240;-41
2022/09/14 08:39:56;;;;;;;2.10;1.30;;;;;;;-144.22;100.00;60274.75;6181820;28;20237;-40
2022/09/14 08:43:02;;;;;;;5.40;1.40;;;;;;;-144.22;100.00;60274.75;6180874;28;20251;-40
2022/09/14 08:46:10;;;;;;;5.50;1.80;;;;;;;-144.22;100.00;60274.75;6180221;28;20256;-40
2022/09/14 08:49:36;;;;;;;1.90;1.80;;;;;;;-144.22;100.00;60274.75;6181953;28;20237;-40
2022/09/14 08:52:48;;;;;;;2.33;1.67;;;;;;;-144.22;100.00;60274.75;6185704;28;20225;-42
2022/09/14 08:55:57;;;;;;;3.50;1.70;;;;;;;-144.22;100.00;60274.75;6175409;28;20750;-40
2022/09/14 08:59:17;;;;;;;2.43;1.70;;;;;;;-144.22;100.00;60274.75;6174326;28;20821;-40
2022/09/14 09:02:33;;;;;;;2.00;1.60;;;;;;;-144.22;100.00;60274.75;6180918;28;20712;-40
2022/09/14 09:05:45;;;;;;;2.30;1.63;;;;;;;22.46;100.00;60274.75;6181169;28;20240;-40
2022/09/14 09:09:08;;;;;;;3.60;2.47;;;;;;;-144.22;100.00;60274.75;6180463;28;20264;-40
2022/09/14 09:12:14;;;;;;;3.03;2.30;;;;;;;22.32;100.00;60274.75;6180041;28;20340;-40
2022/09/14 09:15:20;;;;;;;2.70;2.00;;;;;;;-144.22;100.00;60274.75;6180849;28;20217;-40
2022/09/14 09:18:40;;;;;;;3.07;2.00;;;;;;;22.52;100.00;60274.75;6181294;28;20237;-40
2022/09/14 09:21:46;;;;;;;5.20;2.70;;;;;;;-144.22;100.00;60274.75;6181546;28;20304;-40
2022/09/14 09:24:53;;;;;;;3.83;2.50;;;;;;;-144.22;100.00;60274.75;6180114;28;20236;-41
2022/09/14 09:28:09;;;;;;;3.17;2.20;;;;;;;-144.22;100.00;60274.75;6180107;28;20221;-40
2022/09/14 09:31:13;;;;;;;1.97;1.77;;;;;;;-144.22;100.00;60274.75;6180828;28;20221;-41
2022/09/14 09:34:49;;;;;;;3.07;2.20;;;;;;;23.04;100.00;60274.75;6194274;28;20248;-42
2022/09/14 09:38:23;;;;;;;2.50;2.30;;;;;;;-144.22;100.00;60274.75;6178121;28;20233;-41
2022/09/14 09:41:29;;;;;;;2.73;2.40;;;;;;;22.23;100.00;60274.75;6170962;28;20742;-41
2022/09/14 09:44:59;;;;;;;4.13;2.53;;;;;;;-144.22;100.00;60274.75;6176470;28;20229;-40
2022/09/14 09:48:10;;;;;;;4.20;2.30;;;;;;;22.16;59.30;96894.31;6183431;28;20553;-40
2022/09/14 09:51:15;;;;;;;6.77;3.50;;;;;;;21.83;59.93;96904.41;6177314;28;20209;-41
2022/09/14 09:54:25;;;;;;;4.27;3.03;;;;;;;;;;6184862;28;20229;-40
2022/09/14 09:57:30;;;;;;;3.10;2.77;;;;;;;21.81;60.29;96926.09;6186804;28;20232;-40
2022/09/14 10:00:33;;;;;;;3.10;2.73;;;;;;;21.96;60.56;96923.97;6185259;28;20680;-40
2022/09/14 10:03:37;;;;;;;2.80;2.27;;;;;;;22.27;60.83;96919.72;6184357;28;20232;-42
2022/09/14 10:06:44;;;;;;;4.97;2.37;;;;;;;22.45;58.85;96935.97;6183447;28;20607;-42
2022/09/14 10:10:04;;;;;;;2.37;2.17;;;;;;;22.49;57.08;96942.53;6185588;28;20239;-40
2022/09/14 10:13:33;;;;;;;4.07;2.20;;;;;;;22.45;55.96;96947.56;6184785;28;20241;-40
2022/09/14 10:16:40;;;;;;;2.17;1.97;;;;;;;22.32;56.75;96957.53;6184852;28;20320;-40
2022/09/14 10:19:51;;;;;;;3.47;2.07;;;;;;;22.14;58.62;96931.38;6184508;28;20232;-41
2022/09/14 10:22:53;;;;;;;2.17;1.97;;;;;;;21.92;61.29;96920.06;6184557;28;20352;-41
2022/09/14 10:26:11;;;;;;;3.57;2.17;;;;;;;21.78;63.16;96912.25;6183698;28;20711;-41
2022/09/14 10:29:36;;;;;;;2.57;2.03;;;;;;;21.63;63.95;96910.66;6183915;28;20728;-42
2022/09/14 10:32:42;;;;;;;2.67;2.40;;;;;;;21.54;64.08;96927.22;6184203;28;20221;-40
2022/09/14 10:35:57;;;;;;;2.57;2.33;;;;;;;21.55;65.70;96912.75;6184873;28;20756;-41
2022/09/14 10:39:11;;;;;;;3.90;2.40;;;;;;;21.49;65.75;96910.91;6185011;28;20286;-42
2022/09/14 10:42:36;;;;;;;2.50;2.27;;;;;;;21.45;66.52;96907.84;6183729;28;20380;-40
2022/09/14 10:45:42;;;;;;;2.40;2.10;;;;;;;21.46;66.16;96904.09;6187826;28;20602;-40
2022/09/14 10:49:36;;;;;;;2.33;2.13;;;;;;;21.54;66.78;96909.25;6159842;28;20718;-41
2022/09/14 10:52:54;;;;;;;2.93;2.40;;;;;;;21.62;66.72;96889.38;6184045;28;20833;-41
2022/09/14 10:56:04;;;;;;;3.00;2.00;;;;;;;21.59;66.32;96887.94;6164072;28;20308;-41
2022/09/14 10:59:26;;;;;;;3.53;2.40;;;;;;;21.66;66.44;96878.00;6163359;28;20361;-42
2022/09/14 11:02:52;;;;;;;2.50;2.17;;;;;;;21.67;65.86;96882.34;6157331;28;20238;-41
2022/09/14 11:06:25;;;;;;;2.30;2.10;;;;;;;21.61;66.33;96877.81;6175471;28;20739;-41
2022/09/14 11:09:41;;;;;;;3.10;2.10;;;;;;;21.47;66.42;96873.50;6158404;28;20716;-40
2022/09/14 11:13:08;;;;;;;3.33;2.30;;;;;;;21.39;66.86;96878.28;6202321;28;20237;-40
2022/09/14 11:16:38;;;;;;;2.93;2.13;;;;;;;21.32;67.48;96884.53;6203433;28;20230;-40
2022/09/14 11:19:53;;;;;;;5.00;2.30;;;;;;;21.23;67.86;96883.09;6203582;28;20235;-42
2022/09/14 11:23:21;;;;;;;5.00;1.97;;;;;;;21.17;68.56;96880.38;6204324;28;20616;-40
2022/09/14 11:26:30;;;;;;;2.40;2.20;;;;;;;21.12;69.29;96869.47;6203717;28;20753;-42
2022/09/14 11:29:40;;;;;;;3.47;1.90;;;;;;;21.13;69.85;96860.38;6170548;28;20331;-41
2022/09/14 11:33:15;;;;;;;3.37;2.30;;;;;;;21.21;68.66;96852.94;6176002;28;20315;-41
2022/09/14 11:36:37;;;;;;;2.80;2.40;;;;;;;21.29;67.60;96838.47;6182279;28;20225;-42
2022/09/14 11:39:46;;;;;;;2.43;2.23;;;;;;;21.45;67.44;96842.56;6181995;28;20311;-41
2022/09/14 11:43:01;;;;;;;2.57;2.10;;;;;;;21.59;66.88;96834.22;6182486;28;20237;-40
2022/09/14 11:46:10;;;;;;;2.43;2.23;;;;;;;21.60;66.59;96833.19;6182247;28;20323;-40
2022/09/14 11:49:18;;;;;;;2.40;2.20;;;;;;;;;;6181942;28;20237;-40
2022/09/14 11:52:23;;;;;;;2.60;2.23;;;;;;;22.00;66.21;96806.16;6175974;28;20229;-40
2022/09/14 11:55:25;;;;;;;2.53;2.33;;;;;;;22.34;64.15;96802.22;6182225;28;20229;-40
2022/09/14 11:58:28;;;;;;;4.63;2.60;;;;;;;22.63;61.79;96792.66;6181706;28;20221;-40
2022/09/14 12:01:51;;;;;;;3.27;2.47;;;;;;;22.81;60.08;96781.97;6182524;28;20597;-41
2022/09/14 12:05:06;;;;;;;3.17;2.67;;;;;;;23.02;59.23;96768.09;6181447;28;20233;-40
2022/09/14 12:08:23;;;;;;;2.30;2.10;;;;;;;23.22;59.47;96762.47;6181833;28;20347;-40
2022/09/14 12:11:31;;;;;;;2.57;2.37;;;;;;;23.37;58.91;96756.69;6181716;28;20240;-40
2022/09/14 12:14:35;;;;;;;2.30;2.10;;;;;;;-144.22;100.00;60274.75;6181637;28;20709;-41
2022/09/14 12:17:37;;;;;;;2.73;2.50;;;;;;;-144.22;100.00;60274.75;6182342;28;20240;-40
2022/09/14 12:21:01;;;;;;;2.30;2.10;;;;;;;-144.22;100.00;60274.75;6182001;28;20279;-40
2022/09/14 12:24:14;;;;;;;2.77;2.37;;;;;;;-144.22;100.00;60274.75;6181080;28;20709;-40
2022/09/14 12:27:22;;;;;;;3.27;2.13;;;;;;;-144.22;100.00;60274.75;6181794;28;20218;-40
2022/09/14 12:30:39;;;;;;;4.63;2.27;;;;;;;-144.22;100.00;60274.75;6181521;28;20225;-40
2022/09/14 12:33:44;;;;;;;2.33;2.13;;;;;;;-144.22;100.00;60274.75;6196110;28;20257;-42
2022/09/14 12:36:46;;;;;;;4.88;2.20;;;;;;;-144.22;100.00;60274.75;6181895;28;20764;-41
2022/09/14 12:40:18;;;;;;;2.45;2.10;;;;;;;-144.22;100.00;60274.75;6181685;28;20224;-41
2022/09/14 12:43:35;;;;;;;2.80;2.60;;;;;;;-144.22;100.00;60274.75;6181458;28;20717;-44
2022/09/14 12:46:38;;;;;;;4.28;2.15;;;;;;;-144.22;100.00;60274.75;6186613;28;20241;-40
2022/09/14 12:49:40;;;;;;;3.30;2.25;;;;;;;-144.22;100.00;60274.75;6180823;28;20260;-41
2022/09/14 12:53:20;;;;;;;5.00;2.60;;;;;;;-144.22;100.00;60274.75;6181688;28;20243;-41
2022/09/14 12:56:28;;;;;;;4.22;2.35;;;;;;;-144.22;100.00;60274.75;6181086;28;20239;-40
2022/09/14 12:59:50;;;;;;;4.07;2.35;;;;;;;-144.22;100.00;60274.75;6182502;28;20260;-40
2022/09/14 13:03:21;;;;;;;3.65;2.42;;;;;;;-144.22;100.00;60274.75;6180636;28;20229;-40
2022/09/14 13:06:40;;;;;;;3.22;2.50;;;;;;;26.93;100.00;60274.75;6179945;28;20229;-40
2022/09/14 13:09:48;;;;;;;3.83;2.58;;;;;;;-144.22;100.00;60274.75;6180856;28;20265;-40
2022/09/14 13:12:51;;;;;;;3.25;2.33;;;;;;;26.93;100.00;60274.75;6180344;28;20230;-40
2022/09/14 13:15:57;;;;;;;3.65;2.42;;;;;;;-144.22;100.00;60274.75;6185434;28;20249;-40
2022/09/14 13:19:02;;;;;;;3.83;2.50;;;;;;;-144.22;100.00;60274.75;6181220;28;20236;-40
2022/09/14 13:22:20;;;;;;;2.60;2.25;;;;;;;29.53;100.00;60274.75;6180105;28;20312;-41
2022/09/14 13:25:35;;;;;;;2.88;2.20;;;;;;;-144.22;100.00;60274.75;6181083;28;20910;-41
2022/09/14 13:28:40;;;;;;;4.22;2.22;;;;;;;-144.22;100.00;60274.75;6181686;28;20269;-41
2022/09/14 13:31:44;;;;;;;2.97;2.15;;;;;;;30.00;40.46;96701.09;6181237;28;20244;-40
2022/09/14 13:34:46;;;;;;;3.08;2.22;;;;;;;31.00;37.72;96695.84;6180894;28;20704;-43
2022/09/14 13:37:49;;;;;;;4.38;2.38;;;;;;;31.58;37.09;96698.09;6194385;28;20364;-41
2022/09/14 13:40:54;;;;;;;2.63;2.30;;;;;;;32.70;34.48;96696.25;6180408;28;20646;-41
2022/09/14 13:43:57;;;;;;;5.68;2.55;;;;;;;33.68;32.63;96687.44;6181033;28;20240;-41
2022/09/14 13:47:02;;;;;;;2.28;2.10;;;;;;;33.66;32.05;96699.78;6180599;28;20604;-42
2022/09/14 13:50:06;;;;;;;5.80;2.67;;;;;;;-144.22;100.00;60274.75;6179491;28;20235;-41
2022/09/14 13:53:36;;;;;;;2.65;2.45;;;;;;;30.79;38.78;96694.28;6165615;28;20253;-41
2022/09/14 13:56:38;;;;;;;3.03;2.72;;;;;;;28.71;43.01;96710.03;6180237;28;20233;-41
2022/09/14 14:00:18;;;;;;;3.25;2.53;;;;;;;27.47;45.11;96708.31;6180446;28;20237;-40
2022/09/14 14:03:23;;;;;;;2.92;2.55;;;;;;;26.78;47.09;96704.41;6179623;28;20275;-40
2022/09/14 14:06:29;;;;;;;3.17;2.55;;;;;;;26.46;49.19;96702.34;6184304;28;20776;-41
2022/09/14 14:09:54;;;;;;;3.00;2.42;;;;;;;26.63;48.55;96691.50;6180081;28;20225;-40
2022/09/14 14:12:57;;;;;;;2.58;2.38;;;;;;;26.86;48.82;96690.44;6179678;28;20709;-42
2022/09/14 14:16:19;;;;;;;3.63;2.80;;;;;;;26.85;47.51;96679.88;6180208;28;20582;-41
2022/09/14 14:19:27;;;;;;;3.22;2.40;;;;;;;26.90;47.77;96682.66;6179703;28;20241;-40
2022/09/14 14:22:33;;;;;;;3.10;2.30;;;;;;;26.97;47.73;96677.88;6179821;28;20244;-40
2022/09/14 14:25:46;;;;;;;3.30;2.20;;;;;;;26.62;48.33;96679.03;6179923;28;20241;-40